sensor_id;sensor_type;location;lat;lon;timestamp;pressure;altitude;pressure_sealevel;temperature;humidity
49827;BME280;35715;51.570;6.036;2023-05-11T00:01:06;101289.66;;;14.46;100.00
49827;BME280;35715;51.570;6.036;2023-05-11T00:06:04;101285.56;;;14.34;100.00
49827;BME280;35715;51.570;6.036;2023-05-11T00:08:30;101282.88;;;14.33;100.00
49827;BME280;35715;51.570;6.036;2023-05-11T00:10:55;101287.09;;;14.31;100.00
49827;BME280;35715;51.570;6.036;2023-05-11T00:13:23;101291.28;;;14.29;100.00
49827;BME280;35715;51.570;6.036;2023-05-11T00:15:49;101288.41;;;14.24;100.00
49827;BME280;35715;51.570;6.036;2023-05-11T00:18:14;101283.03;;;14.21;100.00
49827;BME280;35715;51.570;6.036;2023-05-11T00:20:39;101275.94;;;14.18;100.00
49827;BME280;35715;51.570;6.036;2023-05-11T00:25:38;101275.75;;;14.15;100.00
49827;BME280;35715;51.570;6.036;2023-05-11T00:28:03;101276.78;;;14.17;100.00
49827;BME280;35715;51.570;6.036;2023-05-11T00:30:28;101279.28;;;14.16;100.00
49827;BME280;35715;51.570;6.036;2023-05-11T00:33:07;101283.56;;;14.15;100.00
49827;BME280;35715;51.570;6.036;2023-05-11T00:35:32;101284.47;;;14.16;100.00
49827;BME280;35715;51.570;6.036;2023-05-11T00:37:57;101282.66;;;14.15;100.00
49827;BME280;35715;51.570;6.036;2023-05-11T00:40:23;101273.81;;;14.11;100.00
49827;BME280;35715;51.570;6.036;2023-05-11T00:42:49;101271.84;;;14.07;100.00
49827;BME280;35715;51.570;6.036;2023-05-11T00:45:15;101274.25;;;14.04;100.00
49827;BME280;35715;51.570;6.036;2023-05-11T00:47:40;101277.72;;;14.05;100.00
49827;BME280;35715;51.570;6.036;2023-05-11T00:50:06;101279.34;;;14.02;100.00
49827;BME280;35715;51.570;6.036;2023-05-11T00:52:33;101275.66;;;13.99;100.00
49827;BME280;35715;51.570;6.036;2023-05-11T00:54:58;101276.38;;;13.96;100.00
49827;BME280;35715;51.570;6.036;2023-05-11T00:57:23;101282.25;;;13.94;100.00
49827;BME280;35715;51.570;6.036;2023-05-11T00:59:49;101276.19;;;13.93;100.00
49827;BME280;35715;51.570;6.036;2023-05-11T01:02:17;101272.59;;;13.91;100.00
49827;BME280;35715;51.570;6.036;2023-05-11T01:04:42;101274.47;;;13.94;100.00
49827;BME280;35715;51.570;6.036;2023-05-11T01:07:11;101281.56;;;13.96;100.00
49827;BME280;35715;51.570;6.036;2023-05-11T01:12:10;101278.97;;;13.96;100.00
49827;BME280;35715;51.570;6.036;2023-05-11T01:14:40;101277.94;;;13.94;100.00
49827;BME280;35715;51.570;6.036;2023-05-11T01:17:09;101283.97;;;13.93;100.00
49827;BME280;35715;51.570;6.036;2023-05-11T01:22:49;101293.00;;;14.00;100.00
49827;BME280;35715;51.570;6.036;2023-05-11T01:24:59;101292.50;;;14.06;100.00
49827;BME280;35715;51.570;6.036;2023-05-11T01:30:36;101286.69;;;14.10;100.00
49827;BME280;35715;51.570;6.036;2023-05-11T01:33:05;101285.97;;;14.12;100.00
49827;BME280;35715;51.570;6.036;2023-05-11T01:35:31;101296.44;;;14.14;100.00
49827;BME280;35715;51.570;6.036;2023-05-11T01:37:59;101294.84;;;14.16;100.00
49827;BME280;35715;51.570;6.036;2023-05-11T01:40:26;101297.44;;;14.16;100.00
49827;BME280;35715;51.570;6.036;2023-05-11T01:43:16;101291.53;;;14.18;100.00
49827;BME280;35715;51.570;6.036;2023-05-11T01:45:40;101295.63;;;14.15;100.00
49827;BME280;35715;51.570;6.036;2023-05-11T01:48:06;101290.34;;;14.13;100.00
49827;BME280;35715;51.570;6.036;2023-05-11T01:50:33;101291.16;;;14.12;100.00
49827;BME280;35715;51.570;6.036;2023-05-11T01:53:00;101289.47;;;14.13;100.00
49827;BME280;35715;51.570;6.036;2023-05-11T01:55:26;101298.06;;;14.12;100.00
49827;BME280;35715;51.570;6.036;2023-05-11T01:57:55;101289.38;;;14.11;100.00
49827;BME280;35715;51.570;6.036;2023-05-11T02:00:20;101293.56;;;14.09;100.00
49827;BME280;35715;51.570;6.036;2023-05-11T02:02:46;101294.38;;;14.08;100.00
49827;BME280;35715;51.570;6.036;2023-05-11T02:05:14;101297.78;;;14.07;100.00
49827;BME280;35715;51.570;6.036;2023-05-11T02:07:40;101298.75;;;14.09;100.00
49827;BME280;35715;51.570;6.036;2023-05-11T02:10:07;101303.16;;;14.10;100.00
49827;BME280;35715;51.570;6.036;2023-05-11T02:12:33;101305.66;;;14.09;100.00
49827;BME280;35715;51.570;6.036;2023-05-11T02:14:59;101302.09;;;14.07;100.00
49827;BME280;35715;51.570;6.036;2023-05-11T02:17:25;101299.41;;;14.05;100.00
49827;BME280;35715;51.570;6.036;2023-05-11T02:19:52;101303.56;;;14.03;100.00
49827;BME280;35715;51.570;6.036;2023-05-11T02:22:17;101297.50;;;14.02;100.00
49827;BME280;35715;51.570;6.036;2023-05-11T02:24:44;101308.75;;;14.03;100.00
49827;BME280;35715;51.570;6.036;2023-05-11T02:27:10;101296.53;;;14.00;100.00
49827;BME280;35715;51.570;6.036;2023-05-11T02:29:36;101301.72;;;14.00;100.00
49827;BME280;35715;51.570;6.036;2023-05-11T02:34:36;101294.81;;;14.01;100.00
49827;BME280;35715;51.570;6.036;2023-05-11T02:37:04;101296.72;;;14.04;100.00
49827;BME280;35715;51.570;6.036;2023-05-11T02:39:32;101295.88;;;14.05;100.00
49827;BME280;35715;51.570;6.036;2023-05-11T02:41:59;101295.09;;;14.06;100.00
49827;BME280;35715;51.570;6.036;2023-05-11T02:44:26;101288.19;;;14.06;100.00
49827;BME280;35715;51.570;6.036;2023-05-11T02:46:52;101290.69;;;14.05;100.00
49827;BME280;35715;51.570;6.036;2023-05-11T02:49:20;101298.75;;;14.09;100.00
49827;BME280;35715;51.570;6.036;2023-05-11T02:51:46;101299.75;;;14.11;100.00
49827;BME280;35715;51.570;6.036;2023-05-11T02:54:12;101297.25;;;14.13;100.00
49827;BME280;35715;51.570;6.036;2023-05-11T02:56:39;101298.16;;;14.13;100.00
49827;BME280;35715;51.570;6.036;2023-05-11T02:59:05;101300.75;;;14.13;100.00
49827;BME280;35715;51.570;6.036;2023-05-11T03:01:30;101301.72;;;14.15;100.00
49827;BME280;35715;51.570;6.036;2023-05-11T03:03:57;101298.34;;;14.16;100.00
49827;BME280;35715;51.570;6.036;2023-05-11T03:06:22;101307.81;;;14.16;100.00
49827;BME280;35715;51.570;6.036;2023-05-11T03:08:47;101307.81;;;14.16;100.00
49827;BME280;35715;51.570;6.036;2023-05-11T03:11:13;101305.22;;;14.16;100.00
49827;BME280;35715;51.570;6.036;2023-05-11T03:16:24;101298.34;;;14.16;100.00
49827;BME280;35715;51.570;6.036;2023-05-11T03:18:50;101294.75;;;14.14;100.00
49827;BME280;35715;51.570;6.036;2023-05-11T03:21:17;101296.25;;;14.11;100.00
49827;BME280;35715;51.570;6.036;2023-05-11T03:23:49;101300.47;;;14.09;100.00
49827;BME280;35715;51.570;6.036;2023-05-11T03:26:18;101313.72;;;14.13;100.00
49827;BME280;35715;51.570;6.036;2023-05-11T03:28:45;101304.22;;;14.14;100.00
49827;BME280;35715;51.570;6.036;2023-05-11T03:31:11;101304.50;;;14.18;100.00
49827;BME280;35715;51.570;6.036;2023-05-11T03:33:36;101299.31;;;14.18;100.00
49827;BME280;35715;51.570;6.036;2023-05-11T03:36:01;101302.00;;;14.20;100.00
49827;BME280;35715;51.570;6.036;2023-05-11T03:38:27;101299.50;;;14.22;100.00
49827;BME280;35715;51.570;6.036;2023-05-11T03:40:53;101294.22;;;14.20;100.00
49827;BME280;35715;51.570;6.036;2023-05-11T03:43:19;101292.44;;;14.19;100.00
49827;BME280;35715;51.570;6.036;2023-05-11T03:45:44;101291.44;;;14.17;100.00
49827;BME280;35715;51.570;6.036;2023-05-11T03:48:10;101291.25;;;14.14;100.00
49827;BME280;35715;51.570;6.036;2023-05-11T03:50:38;101285.78;;;14.09;100.00
49827;BME280;35715;51.570;6.036;2023-05-11T03:53:04;101296.97;;;14.08;100.00
49827;BME280;35715;51.570;6.036;2023-05-11T03:55:30;101291.59;;;14.05;100.00
49827;BME280;35715;51.570;6.036;2023-05-11T03:57:55;101278.44;;;14.02;100.00
49827;BME280;35715;51.570;6.036;2023-05-11T04:00:21;101279.25;;;14.01;100.00
49827;BME280;35715;51.570;6.036;2023-05-11T04:02:46;101287.91;;;14.01;100.00
49827;BME280;35715;51.570;6.036;2023-05-11T04:05:12;101283.56;;;14.00;100.00
49827;BME280;35715;51.570;6.036;2023-05-11T04:07:37;101286.22;;;14.02;100.00
49827;BME280;35715;51.570;6.036;2023-05-11T04:10:03;101292.31;;;14.02;100.00
49827;BME280;35715;51.570;6.036;2023-05-11T04:12:44;101287.31;;;14.06;100.00
49827;BME280;35715;51.570;6.036;2023-05-11T04:15:09;101296.97;;;14.08;100.00
49827;BME280;35715;51.570;6.036;2023-05-11T04:17:35;101295.38;;;14.10;100.00
49827;BME280;35715;51.570;6.036;2023-05-11T04:20:00;101296.25;;;14.11;100.00
49827;BME280;35715;51.570;6.036;2023-05-11T04:24:54;101311.91;;;14.12;100.00
49827;BME280;35715;51.570;6.036;2023-05-11T04:27:20;101297.06;;;14.10;100.00
49827;BME280;35715;51.570;6.036;2023-05-11T04:29:45;101310.16;;;14.11;100.00
49827;BME280;35715;51.570;6.036;2023-05-11T04:32:11;101310.22;;;14.13;100.00
49827;BME280;35715;51.570;6.036;2023-05-11T04:34:36;101310.31;;;14.14;100.00
49827;BME280;35715;51.570;6.036;2023-05-11T04:37:02;101306.03;;;14.15;100.00
49827;BME280;35715;51.570;6.036;2023-05-11T04:39:31;101319.97;;;14.17;100.00
49827;BME280;35715;51.570;6.036;2023-05-11T04:41:56;101313.09;;;14.17;100.00
49827;BME280;35715;51.570;6.036;2023-05-11T04:44:21;101314.00;;;14.18;100.00
49827;BME280;35715;51.570;6.036;2023-05-11T04:46:46;101313.19;;;14.19;100.00
49827;BME280;35715;51.570;6.036;2023-05-11T04:49:12;101307.91;;;14.17;100.00
49827;BME280;35715;51.570;6.036;2023-05-11T04:51:37;101314.19;;;14.21;100.00
49827;BME280;35715;51.570;6.036;2023-05-11T04:54:04;101319.47;;;14.23;100.00
49827;BME280;35715;51.570;6.036;2023-05-11T04:56:29;101323.84;;;14.24;100.00
49827;BME280;35715;51.570;6.036;2023-05-11T04:58:54;101319.72;;;14.27;100.00
49827;BME280;35715;51.570;6.036;2023-05-11T05:01:20;101315.56;;;14.29;100.00
49827;BME280;35715;51.570;6.036;2023-05-11T05:03:47;101318.34;;;14.32;100.00
49827;BME280;35715;51.570;6.036;2023-05-11T05:06:13;101320.09;;;14.33;100.00
49827;BME280;35715;51.570;6.036;2023-05-11T05:08:38;101321.03;;;14.34;100.00
49827;BME280;35715;51.570;6.036;2023-05-11T05:11:03;101324.59;;;14.36;100.00
49827;BME280;35715;51.570;6.036;2023-05-11T05:13:35;101325.56;;;14.38;100.00
49827;BME280;35715;51.570;6.036;2023-05-11T05:16:01;101321.28;;;14.38;100.00
49827;BME280;35715;51.570;6.036;2023-05-11T05:18:27;101323.88;;;14.38;100.00
49827;BME280;35715;51.570;6.036;2023-05-11T05:20:52;101326.47;;;14.38;100.00
49827;BME280;35715;51.570;6.036;2023-05-11T05:23:17;101329.00;;;14.37;100.00
49827;BME280;35715;51.570;6.036;2023-05-11T05:25:42;101329.88;;;14.37;100.00
49827;BME280;35715;51.570;6.036;2023-05-11T05:28:08;101326.56;;;14.40;100.00
49827;BME280;35715;51.570;6.036;2023-05-11T05:30:33;101335.25;;;14.41;100.00
49827;BME280;35715;51.570;6.036;2023-05-11T05:33:12;101333.72;;;14.44;100.00
49827;BME280;35715;51.570;6.036;2023-05-11T05:35:37;101337.22;;;14.45;100.00
49827;BME280;35715;51.570;6.036;2023-05-11T05:38:03;101339.84;;;14.45;100.00
49827;BME280;35715;51.570;6.036;2023-05-11T05:40:28;101342.59;;;14.48;100.00
49827;BME280;35715;51.570;6.036;2023-05-11T05:42:54;101347.09;;;14.50;100.00
49827;BME280;35715;51.570;6.036;2023-05-11T05:45:19;101346.38;;;14.53;100.00
49827;BME280;35715;51.570;6.036;2023-05-11T05:47:45;101350.66;;;14.52;100.00
49827;BME280;35715;51.570;6.036;2023-05-11T05:50:10;101350.75;;;14.54;100.00
49827;BME280;35715;51.570;6.036;2023-05-11T05:52:36;101344.88;;;14.57;100.00
49827;BME280;35715;51.570;6.036;2023-05-11T05:55:01;101355.75;;;14.64;100.00
49827;BME280;35715;51.570;6.036;2023-05-11T05:57:27;101352.50;;;14.68;100.00
49827;BME280;35715;51.570;6.036;2023-05-11T05:59:54;101350.66;;;14.81;100.00
49827;BME280;35715;51.570;6.036;2023-05-11T06:02:20;101355.63;;;14.93;100.00
49827;BME280;35715;51.570;6.036;2023-05-11T06:04:46;101351.44;;;14.95;100.00
49827;BME280;35715;51.570;6.036;2023-05-11T06:07:11;101359.16;;;14.93;100.00
49827;BME280;35715;51.570;6.036;2023-05-11T06:09:38;101361.75;;;14.93;100.00
49827;BME280;35715;51.570;6.036;2023-05-11T06:12:03;101361.19;;;14.99;100.00
49827;BME280;35715;51.570;6.036;2023-05-11T06:14:29;101369.91;;;14.99;100.00
49827;BME280;35715;51.570;6.036;2023-05-11T06:16:55;101363.88;;;15.00;99.69
49827;BME280;35715;51.570;6.036;2023-05-11T06:19:20;101369.91;;;14.99;99.59
49827;BME280;35715;51.570;6.036;2023-05-11T06:21:45;101371.78;;;15.02;99.77
49827;BME280;35715;51.570;6.036;2023-05-11T06:24:18;101379.59;;;15.02;100.00
49827;BME280;35715;51.570;6.036;2023-05-11T06:26:43;101372.16;;;14.93;99.49
49827;BME280;35715;51.570;6.036;2023-05-11T06:29:09;101377.34;;;14.93;99.30
49827;BME280;35715;51.570;6.036;2023-05-11T06:31:34;101379.03;;;14.93;99.28
49827;BME280;35715;51.570;6.036;2023-05-11T06:34:01;101381.25;;;14.86;98.87
49827;BME280;35715;51.570;6.036;2023-05-11T06:36:27;101390.22;;;14.77;98.60
49827;BME280;35715;51.570;6.036;2023-05-11T06:38:52;101384.03;;;14.75;99.25
49827;BME280;35715;51.570;6.036;2023-05-11T06:41:17;101378.03;;;14.76;99.88
49827;BME280;35715;51.570;6.036;2023-05-11T06:44:00;101382.44;;;14.77;99.57
49827;BME280;35715;51.570;6.036;2023-05-11T06:46:25;101382.25;;;14.73;99.51
49827;BME280;35715;51.570;6.036;2023-05-11T06:48:51;101383.03;;;14.72;99.27
49827;BME280;35715;51.570;6.036;2023-05-11T06:51:16;101389.13;;;14.73;99.63
49827;BME280;35715;51.570;6.036;2023-05-11T06:56:16;101381.00;;;14.82;100.00
49827;BME280;35715;51.570;6.036;2023-05-11T06:58:41;101383.94;;;14.88;100.00
49827;BME280;35715;51.570;6.036;2023-05-11T07:01:06;101379.03;;;14.93;99.85
49827;BME280;35715;51.570;6.036;2023-05-11T07:06:04;101383.41;;;15.08;99.53
49827;BME280;35715;51.570;6.036;2023-05-11T07:08:29;101386.47;;;15.16;99.38
49827;BME280;35715;51.570;6.036;2023-05-11T07:10:55;101386.09;;;15.25;99.15
49827;BME280;35715;51.570;6.036;2023-05-11T07:13:20;101392.63;;;15.33;99.71
49827;BME280;35715;51.570;6.036;2023-05-11T07:15:45;101392.72;;;15.35;98.74
49827;BME280;35715;51.570;6.036;2023-05-11T07:18:10;101398.00;;;15.36;98.10
49827;BME280;35715;51.570;6.036;2023-05-11T07:20:36;101397.91;;;15.35;96.97
49827;BME280;35715;51.570;6.036;2023-05-11T07:23:01;101400.59;;;15.36;96.99
49827;BME280;35715;51.570;6.036;2023-05-11T07:25:27;101402.50;;;15.39;97.51
49827;BME280;35715;51.570;6.036;2023-05-11T07:27:52;101392.88;;;15.38;96.58
49827;BME280;35715;51.570;6.036;2023-05-11T07:30:17;101391.13;;;15.37;96.87
49827;BME280;35715;51.570;6.036;2023-05-11T07:32:43;101400.94;;;15.42;97.85
49827;BME280;35715;51.570;6.036;2023-05-11T07:35:08;101394.16;;;15.44;97.20
49827;BME280;35715;51.570;6.036;2023-05-11T07:37:33;101388.38;;;15.50;98.13
49827;BME280;35715;51.570;6.036;2023-05-11T07:39:58;101395.47;;;15.53;97.65
49827;BME280;35715;51.570;6.036;2023-05-11T07:42:37;101388.66;;;15.55;97.43
49827;BME280;35715;51.570;6.036;2023-05-11T07:45:02;101393.13;;;15.57;96.95
49827;BME280;35715;51.570;6.036;2023-05-11T07:47:27;101389.97;;;15.63;97.31
49827;BME280;35715;51.570;6.036;2023-05-11T07:49:53;101392.66;;;15.65;96.75
49827;BME280;35715;51.570;6.036;2023-05-11T07:52:20;101390.94;;;15.65;96.17
49827;BME280;35715;51.570;6.036;2023-05-11T07:54:45;101391.84;;;15.66;95.29
49827;BME280;35715;51.570;6.036;2023-05-11T07:57:10;101386.81;;;15.69;95.82
49827;BME280;35715;51.570;6.036;2023-05-11T07:59:37;101397.31;;;15.70;94.76
49827;BME280;35715;51.570;6.036;2023-05-11T08:02:07;101396.31;;;15.83;95.58
49827;BME280;35715;51.570;6.036;2023-05-11T08:04:33;101400.50;;;15.96;95.00
49827;BME280;35715;51.570;6.036;2023-05-11T08:06:58;101392.13;;;16.18;95.42
49827;BME280;35715;51.570;6.036;2023-05-11T08:09:24;101389.84;;;16.57;95.08
49827;BME280;35715;51.570;6.036;2023-05-11T08:11:49;101393.84;;;16.85;91.86
49827;BME280;35715;51.570;6.036;2023-05-11T08:14:14;101395.06;;;17.08;90.77
49827;BME280;35715;51.570;6.036;2023-05-11T08:16:41;101399.69;;;17.50;92.16
49827;BME280;35715;51.570;6.036;2023-05-11T08:19:07;101396.03;;;17.82;90.82
49827;BME280;35715;51.570;6.036;2023-05-11T08:21:32;101393.56;;;18.03;90.24
49827;BME280;35715;51.570;6.036;2023-05-11T08:23:58;101401.31;;;18.02;86.31
49827;BME280;35715;51.570;6.036;2023-05-11T08:26:25;101394.50;;;18.05;88.36
49827;BME280;35715;51.570;6.036;2023-05-11T08:28:50;101402.94;;;18.00;84.59
49827;BME280;35715;51.570;6.036;2023-05-11T08:31:16;101398.34;;;17.94;84.46
49827;BME280;35715;51.570;6.036;2023-05-11T08:33:44;101389.88;;;17.82;84.08
49827;BME280;35715;51.570;6.036;2023-05-11T08:36:09;101391.69;;;17.83;85.09
49827;BME280;35715;51.570;6.036;2023-05-11T08:38:37;101393.34;;;17.81;84.77
49827;BME280;35715;51.570;6.036;2023-05-11T08:41:02;101388.34;;;17.85;84.34
49827;BME280;35715;51.570;6.036;2023-05-11T08:43:28;101390.03;;;17.85;85.59
49827;BME280;35715;51.570;6.036;2023-05-11T08:51:31;101393.59;;;17.31;82.64
49827;BME280;35715;51.570;6.036;2023-05-11T08:54:02;101390.53;;;17.22;83.53
49827;BME280;35715;51.570;6.036;2023-05-11T08:56:28;101396.63;;;17.23;84.53
49827;BME280;35715;51.570;6.036;2023-05-11T08:58:54;101398.28;;;17.20;84.07
49827;BME280;35715;51.570;6.036;2023-05-11T09:01:24;101395.28;;;17.13;83.46
49827;BME280;35715;51.570;6.036;2023-05-11T09:03:52;101400.50;;;17.13;83.14
49827;BME280;35715;51.570;6.036;2023-05-11T09:06:18;101397.16;;;17.15;83.19
49827;BME280;35715;51.570;6.036;2023-05-11T09:08:45;101397.25;;;17.17;82.83
49827;BME280;35715;51.570;6.036;2023-05-11T09:11:10;101397.03;;;17.12;82.39
49827;BME280;35715;51.570;6.036;2023-05-11T09:13:36;101401.91;;;17.06;82.62
49827;BME280;35715;51.570;6.036;2023-05-11T09:16:01;101401.44;;;16.97;82.87
49827;BME280;35715;51.570;6.036;2023-05-11T09:18:27;101405.84;;;16.81;83.50
49827;BME280;35715;51.570;6.036;2023-05-11T09:20:52;101409.63;;;16.70;83.92
49827;BME280;35715;51.570;6.036;2023-05-11T09:23:23;101404.97;;;16.64;84.21
49827;BME280;35715;51.570;6.036;2023-05-11T09:25:49;101407.44;;;16.61;84.08
49827;BME280;35715;51.570;6.036;2023-05-11T09:28:14;101407.28;;;16.58;84.63
49827;BME280;35715;51.570;6.036;2023-05-11T09:30:42;101408.06;;;16.57;84.87
49827;BME280;35715;51.570;6.036;2023-05-11T09:33:08;101405.16;;;16.51;84.86
49827;BME280;35715;51.570;6.036;2023-05-11T09:35:34;101405.00;;;16.48;84.88
49827;BME280;35715;51.570;6.036;2023-05-11T09:38:04;101399.06;;;16.50;84.86
49827;BME280;35715;51.570;6.036;2023-05-11T09:40:32;101401.91;;;16.55;85.66
49827;BME280;35715;51.570;6.036;2023-05-11T09:42:58;101399.38;;;16.57;85.86
49827;BME280;35715;51.570;6.036;2023-05-11T09:45:37;101407.66;;;16.66;85.15
49827;BME280;35715;51.570;6.036;2023-05-11T09:48:04;101408.78;;;16.71;85.28
49827;BME280;35715;51.570;6.036;2023-05-11T09:50:34;101405.53;;;16.75;84.51
49827;BME280;35715;51.570;6.036;2023-05-11T09:52:59;101402.44;;;16.82;84.94
49827;BME280;35715;51.570;6.036;2023-05-11T09:55:25;101403.66;;;16.89;84.02
49827;BME280;35715;51.570;6.036;2023-05-11T09:57:55;101404.66;;;16.91;82.34
49827;BME280;35715;51.570;6.036;2023-05-11T10:00:21;101402.50;;;17.00;83.04
49827;BME280;35715;51.570;6.036;2023-05-11T10:03:03;101402.06;;;17.09;82.33
49827;BME280;35715;51.570;6.036;2023-05-11T10:05:34;101403.19;;;17.14;82.36
49827;BME280;35715;51.570;6.036;2023-05-11T10:08:04;101402.53;;;17.18;82.38
49827;BME280;35715;51.570;6.036;2023-05-11T10:10:31;101398.56;;;17.09;82.87
49827;BME280;35715;51.570;6.036;2023-05-11T10:12:58;101399.09;;;17.19;82.47
49827;BME280;35715;51.570;6.036;2023-05-11T10:15:25;101402.00;;;17.26;82.64
49827;BME280;35715;51.570;6.036;2023-05-11T10:17:56;101400.47;;;17.29;81.73
49827;BME280;35715;51.570;6.036;2023-05-11T10:20:24;101406.47;;;17.28;80.84
49827;BME280;35715;51.570;6.036;2023-05-11T10:22:57;101407.38;;;17.29;82.25
49827;BME280;35715;51.570;6.036;2023-05-11T10:25:23;101402.16;;;17.29;81.03
49827;BME280;35715;51.570;6.036;2023-05-11T10:27:50;101406.47;;;17.28;80.88
49827;BME280;35715;51.570;6.036;2023-05-11T10:30:15;101402.84;;;17.25;81.60
49827;BME280;35715;51.570;6.036;2023-05-11T10:33:00;101404.31;;;17.19;81.22
49827;BME280;35715;51.570;6.036;2023-05-11T10:35:26;101403.28;;;17.16;80.31
49827;BME280;35715;51.570;6.036;2023-05-11T10:37:52;101399.78;;;17.15;80.73
49827;BME280;35715;51.570;6.036;2023-05-11T10:40:17;101401.47;;;17.15;81.46
49827;BME280;35715;51.570;6.036;2023-05-11T10:43:22;101405.41;;;17.07;80.59
49827;BME280;35715;51.570;6.036;2023-05-11T10:52:42;101402.44;;;16.82;81.04
49827;BME280;35715;51.570;6.036;2023-05-11T10:55:58;101405.38;;;16.72;81.83
49827;BME280;35715;51.570;6.036;2023-05-11T10:58:07;101402.38;;;16.64;81.38
49827;BME280;35715;51.570;6.036;2023-05-11T11:03:38;101403.03;;;16.60;82.65
49827;BME280;35715;51.570;6.036;2023-05-11T11:06:03;101396.28;;;16.64;83.41
49827;BME280;35715;51.570;6.036;2023-05-11T11:13:59;101402.75;;;16.72;82.99
49827;BME280;35715;51.570;6.036;2023-05-11T11:16:27;101407.16;;;16.73;83.47
49827;BME280;35715;51.570;6.036;2023-05-11T11:21:52;101396.47;;;16.85;83.54
49827;BME280;35715;51.570;6.036;2023-05-11T11:27:04;101393.28;;;17.07;84.19
49827;BME280;35715;51.570;6.036;2023-05-11T11:29:30;101395.59;;;17.19;83.47
49827;BME280;35715;51.570;6.036;2023-05-11T11:34:47;101397.72;;;17.44;83.60
49827;BME280;35715;51.570;6.036;2023-05-11T11:37:14;101401.56;;;17.52;84.30
49827;BME280;35715;51.570;6.036;2023-05-11T11:42:10;101396.06;;;17.46;83.70
49827;BME280;35715;51.570;6.036;2023-05-11T11:44:37;101404.53;;;17.42;83.76
49827;BME280;35715;51.570;6.036;2023-05-11T11:47:21;101406.84;;;17.36;84.37
49827;BME280;35715;51.570;6.036;2023-05-11T11:49:49;101407.06;;;17.23;84.14
49827;BME280;35715;51.570;6.036;2023-05-11T11:55:01;101406.50;;;16.94;84.47
49827;BME280;35715;51.570;6.036;2023-05-11T12:00:05;101412.47;;;16.75;87.09
49827;BME280;35715;51.570;6.036;2023-05-11T12:02:33;101409.63;;;16.70;88.50
49827;BME280;35715;51.570;6.036;2023-05-11T12:05:11;101408.47;;;16.65;87.58
49827;BME280;35715;51.570;6.036;2023-05-11T12:07:40;101412.63;;;16.61;88.33
49827;BME280;35715;51.570;6.036;2023-05-11T12:10:06;101409.31;;;16.64;89.24
49827;BME280;35715;51.570;6.036;2023-05-11T12:12:32;101403.72;;;16.74;89.59
49827;BME280;35715;51.570;6.036;2023-05-11T12:14:58;101403.38;;;16.84;90.52
49827;BME280;35715;51.570;6.036;2023-05-11T12:17:27;101398.03;;;16.98;90.36
49827;BME280;35715;51.570;6.036;2023-05-11T12:19:54;101409.00;;;17.09;89.69
49827;BME280;35715;51.570;6.036;2023-05-11T12:22:35;101392.19;;;17.20;88.92
49827;BME280;35715;51.570;6.036;2023-05-11T12:25:04;101398.88;;;17.33;89.05
49827;BME280;35715;51.570;6.036;2023-05-11T12:27:29;101393.97;;;17.39;87.94
49827;BME280;35715;51.570;6.036;2023-05-11T12:29:55;101387.56;;;17.50;88.59
49827;BME280;35715;51.570;6.036;2023-05-11T12:32:38;101392.00;;;17.53;87.42
49827;BME280;35715;51.570;6.036;2023-05-11T12:35:04;101393.59;;;17.67;88.29
49827;BME280;35715;51.570;6.036;2023-05-11T12:37:30;101387.78;;;17.73;86.87
49827;BME280;35715;51.570;6.036;2023-05-11T12:39:57;101393.41;;;17.82;86.27
49827;BME280;35715;51.570;6.036;2023-05-11T12:42:23;101393.69;;;18.06;87.74
49827;BME280;35715;51.570;6.036;2023-05-11T12:44:49;101388.81;;;18.34;88.16
49827;BME280;35715;51.570;6.036;2023-05-11T12:47:15;101388.16;;;18.59;88.14
49827;BME280;35715;51.570;6.036;2023-05-11T12:49:41;101394.84;;;18.72;86.05
49827;BME280;35715;51.570;6.036;2023-05-11T12:52:08;101388.34;;;18.83;84.64
49827;BME280;35715;51.570;6.036;2023-05-11T12:54:39;101388.88;;;18.95;84.67
49827;BME280;35715;51.570;6.036;2023-05-11T12:57:05;101390.31;;;18.87;85.20
49827;BME280;35715;51.570;6.036;2023-05-11T12:59:39;101390.56;;;19.14;84.88
49827;BME280;35715;51.570;6.036;2023-05-11T13:02:16;101382.16;;;19.22;83.71
49827;BME280;35715;51.570;6.036;2023-05-11T13:04:44;101380.66;;;19.28;82.42
49827;BME280;35715;51.570;6.036;2023-05-11T13:07:11;101377.03;;;19.25;81.68
49827;BME280;35715;51.570;6.036;2023-05-11T13:09:37;101375.94;;;19.20;80.95
49827;BME280;35715;51.570;6.036;2023-05-11T13:14:33;101378.19;;;19.10;81.04
49827;BME280;35715;51.570;6.036;2023-05-11T13:16:58;101366.00;;;19.11;81.81
49827;BME280;35715;51.570;6.036;2023-05-11T13:19:28;101372.25;;;19.14;81.11
49827;BME280;35715;51.570;6.036;2023-05-11T13:21:54;101371.94;;;19.07;79.66
49827;BME280;35715;51.570;6.036;2023-05-11T13:24:20;101371.00;;;19.05;78.52
49827;BME280;35715;51.570;6.036;2023-05-11T13:26:45;101353.69;;;19.08;79.03
49827;BME280;35715;51.570;6.036;2023-05-11T13:29:11;101362.41;;;19.09;77.51
49827;BME280;35715;51.570;6.036;2023-05-11T13:31:43;101362.47;;;19.10;77.59
49827;BME280;35715;51.570;6.036;2023-05-11T13:34:08;101361.09;;;19.19;78.33
49827;BME280;35715;51.570;6.036;2023-05-11T13:36:34;101366.69;;;19.28;76.83
49827;BME280;35715;51.570;6.036;2023-05-11T13:38:59;101364.97;;;19.28;77.09
49827;BME280;35715;51.570;6.036;2023-05-11T13:41:24;101366.00;;;19.32;77.73
49827;BME280;35715;51.570;6.036;2023-05-11T13:43:55;101361.22;;;19.22;75.07
49827;BME280;35715;51.570;6.036;2023-05-11T13:46:20;101358.59;;;19.22;75.67
49827;BME280;35715;51.570;6.036;2023-05-11T13:48:46;101359.72;;;19.28;76.28
49827;BME280;35715;51.570;6.036;2023-05-11T13:51:11;101362.16;;;19.24;75.90